XPA weather

Pama Airport
Pama, Kompienga, Burkina Faso

Public forecast

Using degrees Celsius for public forecast. Weather courtesy of forecast.io.

Closest aviation weather report (METAR) to Pama Airport

Report is more than 6 hours old.

Closest report is Fada N'gourma Airport, 51.3 nm (95.0 km) NNW. Retrieved 2009/09/21 17:00 UTC (10 years ago):

DFEF 211700Z 00000KT 9999 FEW0226 TCU BKN260 30/25

Closest aviation forecast (TAF) to Pama Airport

Closest forecast is Niamtougou International Airport, 92.0 nm (170.3 km) SSE. Retrieved 2020/02/18 18:24 UTC (3 hours ago):

TAF TAF DXNG 181700Z 1818/1918 08010KT 7000 NSC